Time,TemperatureF,DewpointF,PressureIn,WindDirection,WindDirectionDegrees,WindSpeedMPH,WindSpeedGustMPH,Humidity,HourlyPrecipIn,Conditions,Clouds,dailyrainin,SoftwareType,DateUTC
2013-02-27 00:01:00,41.0,30.0,-100.00,SSE,161,5.0,6.0,65,0.00,,,-99.99,,2013-02-27 08:01:00,
2013-02-27 00:11:00,41.0,30.0,-100.00,SSE,161,5.0,6.0,65,0.00,,,-99.99,,2013-02-27 08:11:00,
2013-02-27 00:42:00,40.0,29.0,-100.00,South,177,4.0,6.0,64,0.00,,,0.00,,2013-02-27 08:42:00,
2013-02-27 00:52:00,40.0,29.0,-100.00,South,177,4.0,6.0,64,0.00,,,0.00,,2013-02-27 08:52:00,
2013-02-27 01:01:00,40.0,29.0,-100.00,South,177,4.0,6.0,64,0.00,,,0.00,,2013-02-27 09:01:00,
2013-02-27 01:11:00,40.0,29.0,-100.00,South,177,4.0,6.0,64,0.00,,,0.00,,2013-02-27 09:11:00,
2013-02-27 01:42:00,40.0,30.0,-100.00,SSE,159,4.0,6.0,68,0.00,,,0.00,,2013-02-27 09:42:00,
2013-02-27 01:52:00,40.0,30.0,-100.00,SSE,159,4.0,6.0,68,0.00,,,0.00,,2013-02-27 09:52:00,
2013-02-27 02:01:00,40.0,30.0,-100.00,SSE,159,4.0,6.0,68,0.00,,,0.00,,2013-02-27 10:01:00,
2013-02-27 02:12:00,40.0,30.0,-100.00,SSE,159,4.0,6.0,68,0.00,,,0.00,,2013-02-27 10:12:00,
2013-02-27 02:42:00,39.0,29.0,-100.00,SSE,158,5.0,7.0,67,0.00,,,0.00,,2013-02-27 10:42:00,
2013-02-27 02:52:00,39.0,29.0,-100.00,SSE,158,5.0,7.0,67,0.00,,,0.00,,2013-02-27 10:52:00,
2013-02-27 03:01:00,39.0,29.0,-100.00,SSE,158,5.0,7.0,67,0.00,,,0.00,,2013-02-27 11:01:00,
2013-02-27 03:11:00,39.0,29.0,-100.00,SSE,158,5.0,7.0,67,0.00,,,0.00,,2013-02-27 11:11:00,
2013-02-27 03:32:00,38.0,29.0,-100.00,SSE,162,5.0,6.0,69,0.00,,,0.00,,2013-02-27 11:32:00,
2013-02-27 03:42:00,38.0,29.0,-100.00,SSE,162,5.0,6.0,69,0.00,,,0.00,,2013-02-27 11:42:00,
2013-02-27 03:52:00,38.0,29.0,-100.00,SSE,162,5.0,6.0,69,0.00,,,0.00,,2013-02-27 11:52:00,
2013-02-27 04:02:00,38.0,29.0,-100.00,SSE,162,5.0,6.0,69,0.00,,,0.00,,2013-02-27 12:02:00,
2013-02-27 04:12:00,38.0,29.0,-100.00,SSE,162,5.0,6.0,69,0.00,,,0.00,,2013-02-27 12:12:00,
2013-02-27 04:42:00,38.0,28.0,-100.00,SSE,157,3.0,6.0,66,0.00,,,0.00,,2013-02-27 12:42:00,
2013-02-27 04:52:00,38.0,28.0,-100.00,SSE,157,3.0,6.0,66,0.00,,,0.00,,2013-02-27 12:52:00,
2013-02-27 05:02:00,38.0,28.0,-100.00,SSE,157,3.0,6.0,66,0.00,,,0.00,,2013-02-27 13:02:00,
2013-02-27 05:11:00,38.0,28.0,-100.00,SSE,157,3.0,6.0,66,0.00,,,0.00,,2013-02-27 13:11:00,
2013-02-27 05:42:00,37.0,25.0,-100.00,SSE,162,4.0,6.0,62,0.00,,,0.00,,2013-02-27 13:42:00,
2013-02-27 05:52:00,37.0,25.0,-100.00,SSE,162,4.0,6.0,62,0.00,,,0.00,,2013-02-27 13:52:00,
2013-02-27 06:02:00,37.0,25.0,-100.00,SSE,162,4.0,6.0,62,0.00,,,0.00,,2013-02-27 14:02:00,
2013-02-27 06:11:00,37.0,25.0,-100.00,SSE,162,4.0,6.0,62,0.00,,,0.00,,2013-02-27 14:11:00,
2013-02-27 06:42:00,36.0,25.0,-100.00,SE,133,1.0,7.0,63,0.00,,,0.00,,2013-02-27 14:42:00,
2013-02-27 06:52:00,36.0,25.0,-100.00,SE,133,1.0,7.0,63,0.00,,,0.00,,2013-02-27 14:52:00,
2013-02-27 07:02:00,36.0,25.0,-100.00,SE,133,1.0,7.0,63,0.00,,,0.00,,2013-02-27 15:02:00,
2013-02-27 07:12:00,36.0,25.0,-100.00,SE,133,1.0,7.0,63,0.00,,,0.00,,2013-02-27 15:12:00,
2013-02-27 07:42:00,37.0,24.0,-100.00,SSE,159,5.0,6.0,59,0.00,,,0.00,,2013-02-27 15:42:00,
2013-02-27 07:52:00,37.0,24.0,-100.00,SSE,159,5.0,6.0,59,0.00,,,0.00,,2013-02-27 15:52:00,
2013-02-27 08:01:00,37.0,24.0,-100.00,SSE,159,5.0,6.0,59,0.00,,,0.00,,2013-02-27 16:01:00,
2013-02-27 08:11:00,37.0,24.0,-100.00,SSE,159,5.0,6.0,59,0.00,,,0.00,,2013-02-27 16:11:00,
2013-02-27 08:42:00,43.0,27.0,-100.00,SW,219,2.0,7.0,52,0.00,,,0.00,,2013-02-27 16:42:00,
2013-02-27 08:52:00,43.0,27.0,-100.00,SW,219,2.0,7.0,52,0.00,,,0.00,,2013-02-27 16:52:00,
2013-02-27 09:01:00,43.0,27.0,-100.00,SW,219,2.0,7.0,52,0.00,,,0.00,,2013-02-27 17:01:00,
2013-02-27 09:11:00,43.0,27.0,-100.00,SW,219,2.0,7.0,52,0.00,,,0.00,,2013-02-27 17:11:00,
2013-02-27 09:42:00,48.0,23.0,-100.00,WNW,295,2.0,5.0,37,0.00,,,-99.99,,2013-02-27 17:42:00,
2013-02-27 09:52:00,48.0,23.0,-100.00,WNW,295,2.0,5.0,37,0.00,,,-99.99,,2013-02-27 17:52:00,
2013-02-27 10:01:00,48.0,23.0,-100.00,WNW,295,2.0,5.0,37,0.00,,,-99.99,,2013-02-27 18:01:00,
2013-02-27 10:11:00,48.0,23.0,-100.00,WNW,295,2.0,5.0,37,0.00,,,-99.99,,2013-02-27 18:11:00,
2013-02-27 10:42:00,52.0,20.0,-100.00,NNW,331,3.0,7.0,28,0.00,,,0.00,,2013-02-27 18:42:00,
2013-02-27 10:52:00,52.0,20.0,-100.00,NNW,331,3.0,7.0,28,0.00,,,0.00,,2013-02-27 18:52:00,
2013-02-27 11:01:00,52.0,20.0,-100.00,NNW,331,3.0,7.0,28,0.00,,,0.00,,2013-02-27 19:01:00,
2013-02-27 11:11:00,52.0,20.0,-100.00,NNW,331,3.0,7.0,28,0.00,,,0.00,,2013-02-27 19:11:00,
2013-02-27 11:42:00,56.0,17.0,-100.00,NW,320,4.0,8.0,21,0.00,,,0.00,,2013-02-27 19:42:00,
2013-02-27 11:52:00,56.0,17.0,-100.00,NW,320,4.0,8.0,21,0.00,,,0.00,,2013-02-27 19:52:00,
2013-02-27 12:01:00,56.0,17.0,-100.00,NW,320,4.0,8.0,21,0.00,,,0.00,,2013-02-27 20:01:00,
2013-02-27 12:11:00,56.0,17.0,-100.00,NW,320,4.0,8.0,21,0.00,,,0.00,,2013-02-27 20:11:00,
2013-02-27 12:42:00,60.0,15.0,-100.00,NNE,15,4.0,8.0,17,0.00,,,-99.99,,2013-02-27 20:42:00,
2013-02-27 12:52:00,60.0,15.0,-100.00,NNE,15,4.0,8.0,17,0.00,,,-99.99,,2013-02-27 20:52:00,
2013-02-27 13:01:00,60.0,15.0,-100.00,NNE,15,4.0,8.0,17,0.00,,,-99.99,,2013-02-27 21:01:00,
2013-02-27 13:11:00,60.0,15.0,-100.00,NNE,15,4.0,8.0,17,0.00,,,-99.99,,2013-02-27 21:11:00,
2013-02-27 13:42:00,63.0,16.0,-100.00,North,5,3.0,9.0,16,0.00,,,-99.99,,2013-02-27 21:42:00,
2013-02-27 13:52:00,63.0,16.0,-100.00,North,5,3.0,9.0,16,0.00,,,-99.99,,2013-02-27 21:52:00,
2013-02-27 14:01:00,63.0,16.0,-100.00,North,5,3.0,9.0,16,0.00,,,-99.99,,2013-02-27 22:01:00,
2013-02-27 14:11:00,63.0,16.0,-100.00,North,5,3.0,9.0,16,0.00,,,-99.99,,2013-02-27 22:11:00,
2013-02-27 14:42:00,66.0,17.0,-100.00,NW,316,5.0,9.0,15,0.00,,,0.00,,2013-02-27 22:42:00,
2013-02-27 14:52:00,66.0,17.0,-100.00,NW,316,5.0,9.0,15,0.00,,,0.00,,2013-02-27 22:52:00,
2013-02-27 15:01:00,66.0,17.0,-100.00,NW,316,5.0,9.0,15,0.00,,,0.00,,2013-02-27 23:01:00,
2013-02-27 15:32:00,63.0,16.0,-100.00,WSW,242,11.0,18.0,16,-99.99,,,0.00,,2013-02-27 23:32:00,
2013-02-27 15:42:00,63.0,16.0,-100.00,WSW,242,11.0,18.0,16,-99.99,,,0.00,,2013-02-27 23:42:00,
2013-02-27 15:53:00,63.0,16.0,-100.00,WSW,242,11.0,18.0,16,-99.99,,,0.00,,2013-02-27 23:53:00,
2013-02-27 16:01:00,63.0,16.0,-100.00,WSW,242,11.0,18.0,16,-99.99,,,0.00,,2013-02-28 00:01:00,
2013-02-27 16:11:00,63.0,16.0,-100.00,WSW,242,11.0,18.0,16,-99.99,,,0.00,,2013-02-28 00:11:00,
2013-02-27 16:42:00,62.0,26.0,-100.00,WSW,252,10.0,20.0,25,0.00,,,0.00,,2013-02-28 00:42:00,
2013-02-27 16:52:00,62.0,26.0,-100.00,WSW,252,10.0,20.0,25,0.00,,,0.00,,2013-02-28 00:52:00,
2013-02-27 17:01:00,62.0,26.0,-100.00,WSW,252,10.0,20.0,25,0.00,,,0.00,,2013-02-28 01:01:00,
2013-02-27 17:32:00,56.0,24.0,-100.00,WSW,239,12.0,22.0,29,0.00,,,0.00,,2013-02-28 01:32:00,
2013-02-27 17:42:00,56.0,24.0,-100.00,WSW,239,12.0,22.0,29,0.00,,,0.00,,2013-02-28 01:42:00,
2013-02-27 17:52:00,56.0,24.0,-100.00,WSW,239,12.0,22.0,29,0.00,,,0.00,,2013-02-28 01:52:00,
2013-02-27 18:01:00,56.0,24.0,-100.00,WSW,239,12.0,22.0,29,0.00,,,0.00,,2013-02-28 02:01:00,
2013-02-27 18:11:00,56.0,24.0,-100.00,WSW,239,12.0,22.0,29,0.00,,,0.00,,2013-02-28 02:11:00,
2013-02-27 19:01:00,54.0,26.0,-100.00,South,184,8.0,22.0,33,0.00,,,0.00,,2013-02-28 03:01:00,
2013-02-27 19:11:00,54.0,26.0,-100.00,South,184,8.0,22.0,33,0.00,,,0.00,,2013-02-28 03:11:00,
2013-02-27 19:32:00,51.0,24.0,-100.00,SSE,156,6.0,12.0,35,0.00,,,0.00,,2013-02-28 03:32:00,
2013-02-27 19:42:00,51.0,24.0,-100.00,SSE,156,6.0,12.0,35,0.00,,,0.00,,2013-02-28 03:42:00,
2013-02-27 19:52:00,51.0,24.0,-100.00,SSE,156,6.0,12.0,35,0.00,,,0.00,,2013-02-28 03:52:00,
2013-02-27 20:01:00,51.0,24.0,-100.00,SSE,156,6.0,12.0,35,0.00,,,0.00,,2013-02-28 04:01:00,
2013-02-27 20:11:00,51.0,24.0,-100.00,SSE,156,6.0,12.0,35,0.00,,,0.00,,2013-02-28 04:11:00,
2013-02-27 20:32:00,50.0,20.0,-100.00,SSE,155,4.0,8.0,30,0.00,,,0.00,,2013-02-28 04:32:00,
2013-02-27 20:42:00,50.0,20.0,-100.00,SSE,155,4.0,8.0,30,0.00,,,0.00,,2013-02-28 04:42:00,
2013-02-27 20:52:00,50.0,20.0,-100.00,SSE,155,4.0,8.0,30,0.00,,,0.00,,2013-02-28 04:52:00,
2013-02-27 21:01:00,50.0,20.0,-100.00,SSE,155,4.0,8.0,30,0.00,,,0.00,,2013-02-28 05:01:00,
2013-02-27 21:11:00,50.0,20.0,-100.00,SSE,155,4.0,8.0,30,0.00,,,0.00,,2013-02-28 05:11:00,
2013-02-27 21:32:00,47.0,19.0,-100.00,SSE,155,4.0,6.0,33,0.00,,,0.00,,2013-02-28 05:32:00,
2013-02-27 21:43:00,47.0,19.0,-100.00,SSE,155,4.0,6.0,33,0.00,,,0.00,,2013-02-28 05:43:00,
2013-02-27 21:52:00,47.0,19.0,-100.00,SSE,155,4.0,6.0,33,0.00,,,0.00,,2013-02-28 05:52:00,
2013-02-27 22:01:00,47.0,19.0,-100.00,SSE,155,4.0,6.0,33,0.00,,,0.00,,2013-02-28 06:01:00,
2013-02-27 22:11:00,47.0,19.0,-100.00,SSE,155,4.0,6.0,33,0.00,,,0.00,,2013-02-28 06:11:00,
2013-02-27 22:32:00,45.0,21.0,-100.00,SSE,162,4.0,6.0,38,0.00,,,0.00,,2013-02-28 06:32:00,
2013-02-27 22:42:00,45.0,21.0,-100.00,SSE,162,4.0,6.0,38,0.00,,,0.00,,2013-02-28 06:42:00,
2013-02-27 22:52:00,45.0,21.0,-100.00,SSE,162,4.0,6.0,38,0.00,,,0.00,,2013-02-28 06:52:00,
2013-02-27 23:01:00,45.0,21.0,-100.00,SSE,162,4.0,6.0,38,0.00,,,0.00,,2013-02-28 07:01:00,
2013-02-27 23:11:00,45.0,21.0,-100.00,SSE,162,4.0,6.0,38,0.00,,,0.00,,2013-02-28 07:11:00,
2013-02-27 23:42:00,44.0,23.0,-100.00,SSE,159,4.0,6.0,43,0.00,,,0.00,,2013-02-28 07:42:00,
2013-02-27 23:52:00,44.0,23.0,-100.00,SSE,159,4.0,6.0,43,0.00,,,0.00,,2013-02-28 07:52:00,